KSGS

South St Paul Municipal-Richard E Fleming Field Airport

South St Paul, Minnesota, USA
METAR KSGS 140715Z AUTO 19005KT 2 1/2SM BR OVC002 M01/M01 A3018 RMK AO2 T10111011
Observed Flight Rules
Dec-14 @ 07:15 UTC (26 minutes ago) Instrument Flight Rules
Wind Visibility Clouds Conditions
190° at 5 knots 2 1/2 miles
  • Overcast at 200' AGL
  • Mist
Temperatures Readings
Current -1°C / 30°F
Dewpoint -1°C / 30°F
Humidity 100%
Altimeter 30.18" Hg
Pressure 1022 hPa
Elevation 250
METAR KSGS 140715Z AUTO 19005KT 2 1/2SM BR OVC002 M01/M01 A3018 RMK AO2 T10111011
Observed Flight Rules
Dec-14 @ 07:15 UTC
(26 minutes ago)
LIFR
Wind Visibility
190° at 5 knots 2 1/2 miles
Clouds
  • Overcast at 200' AGL
Conditions
  • Mist
Temperature Dewpoint
-1°C / 30°F -1°C / 30°F
Humidity Altimeter Pressure
100% 30.18" Hg 1022 hPa